Time;durP1;ratioP1;P1;durP2;ratioP2;P2;SDS_P1;SDS_P2;PMS_P1;PMS_P2;Temp;Humidity;BMP_temperature;BMP_pressure;BME280_temperature;BME280_humidity;BME280_pressure;Samples;Min_cycle;Max_cycle;Signal;HPM_P1;HPM_P2
2023/01/02 00:01:19;;;;;;;5.00;4.20;;;21.40;62.40;;;;;;214107;1284;22466;-57
2023/01/02 00:06:24;;;;;;;6.20;4.30;;;21.40;62.60;;;;;;214213;1284;22465;-58
2023/01/02 00:11:28;;;;;;;4.90;4.20;;;21.40;62.50;;;;;;214157;1285;24377;-58
2023/01/02 00:16:32;;;;;;;8.60;4.80;;;21.40;62.10;;;;;;214126;1294;22453;-58
2023/01/02 00:21:36;;;;;;;10.10;4.00;;;21.40;62.20;;;;;;214176;1287;24359;-57
2023/01/02 00:26:40;;;;;;;5.60;4.10;;;21.40;62.10;;;;;;214309;1294;22468;-59
2023/01/02 00:31:45;;;;;;;5.10;4.40;;;21.40;62.00;;;;;;214129;1294;22588;-55
2023/01/02 00:36:49;;;;;;;6.70;4.50;;;21.30;62.40;;;;;;214075;1287;24261;-58
2023/01/02 00:41:53;;;;;;;4.20;3.80;;;21.40;61.90;;;;;;214074;1294;22476;-57
2023/01/02 00:46:57;;;;;;;4.80;4.30;;;21.40;62.00;;;;;;214387;1287;22564;-57
2023/01/02 00:52:02;;;;;;;5.10;4.30;;;21.30;62.40;;;;;;214042;1290;24267;-56
2023/01/02 00:57:06;;;;;;;5.40;4.00;;;21.30;61.80;;;;;;214347;1301;22484;-58
2023/01/02 01:02:10;;;;;;;6.80;4.40;;;21.30;61.80;;;;;;221832;1284;22107;-57
2023/01/02 01:07:15;;;;;;;6.00;4.00;;;21.30;61.90;;;;;;215065;1284;22587;-58
2023/01/02 01:12:19;;;;;;;5.50;4.80;;;21.30;62.00;;;;;;215466;1298;22540;-57
2023/01/02 01:17:23;;;;;;;4.70;3.40;;;21.30;62.00;;;;;;222416;1285;22123;-57
2023/01/02 01:22:27;;;;;;;4.80;4.30;;;21.20;62.10;;;;;;215937;1297;25261;-58
2023/01/02 01:27:31;;;;;;;4.50;4.00;;;21.20;62.20;;;;;;214143;1290;25322;-57
2023/01/02 01:32:35;;;;;;;4.00;3.60;;;21.20;62.10;;;;;;214369;1293;22589;-57
2023/01/02 01:37:41;;;;;;;4.40;3.90;;;21.20;62.10;;;;;;214039;1289;25384;-59
2023/01/02 01:42:45;;;;;;;5.80;3.70;;;21.40;61.90;;;;;;214029;1303;25414;-59
2023/01/02 01:47:55;;;;;;;5.90;3.90;;;21.70;61.30;;;;;;214260;1288;25283;-57
2023/01/02 01:53:08;;;;;;;4.20;3.70;;;21.90;60.90;;;;;;214135;1288;22457;-57
2023/01/02 01:58:26;;;;;;;7.40;4.20;;;22.00;60.50;;;;;;215833;1296;22510;-56
2023/01/02 02:03:32;;;;;;;4.10;3.70;;;22.20;60.50;;;;;;222395;1284;22111;-57
2023/01/02 02:09:08;;;;;;;4.40;3.30;;;22.20;60.10;;;;;;215416;1291;24259;-56
2023/01/02 02:14:12;;;;;;;4.60;3.20;;;22.40;59.80;;;;;;214235;1294;22624;-58
2023/01/02 02:19:42;;;;;;;8.60;3.70;;;22.50;60.00;;;;;;214159;1294;22460;-58
2023/01/02 02:25:04;;;;;;;5.30;4.10;;;22.50;59.40;;;;;;214088;1290;25298;-58
2023/01/02 02:30:14;;;;;;;4.30;3.90;;;22.60;59.20;;;;;;214284;1291;22463;-58
2023/01/02 02:35:47;;;;;;;4.30;3.40;;;22.70;58.80;;;;;;214043;1306;24442;-57
2023/01/02 02:41:28;;;;;;;3.50;3.20;;;22.80;58.70;;;;;;214161;1294;22580;-57
2023/01/02 02:46:47;;;;;;;4.70;3.70;;;22.90;58.60;;;;;;214202;1298;22475;-57
2023/01/02 02:52:25;;;;;;;3.80;3.50;;;22.90;58.70;;;;;;214145;1294;22758;-57
2023/01/02 02:57:31;;;;;;;4.00;3.60;;;23.00;58.20;;;;;;214043;1294;22462;-58
2023/01/02 03:02:36;;;;;;;3.50;3.20;;;22.90;58.70;;;;;;214122;1284;25524;-57
2023/01/02 03:07:53;;;;;;;3.90;3.50;;;22.90;58.50;;;;;;214359;1293;22666;-58
2023/01/02 03:13:00;;;;;;;4.10;3.70;;;22.70;58.60;;;;;;214028;1299;22468;-57
2023/01/02 03:18:16;;;;;;;4.30;3.90;;;22.70;59.30;;;;;;213962;1306;26155;-58
2023/01/02 03:23:23;;;;;;;3.90;3.50;;;22.60;59.00;;;;;;214059;1294;22480;-57
2023/01/02 03:28:30;;;;;;;4.00;3.60;;;22.60;59.10;;;;;;214305;1303;23793;-58
2023/01/02 03:33:41;;;;;;;4.80;4.20;;;22.50;59.50;;;;;;214150;1294;25522;-58
2023/01/02 03:39:04;;;;;;;3.70;3.40;;;22.40;59.70;;;;;;214174;1287;22490;-58
2023/01/02 03:44:11;;;;;;;3.70;3.40;;;22.40;59.30;;;;;;214240;1288;22587;-57
2023/01/02 03:49:23;;;;;;;3.50;3.20;;;22.30;59.60;;;;;;214047;1300;23745;-56
2023/01/02 03:54:28;;;;;;;4.10;3.40;;;22.30;59.80;;;;;;222379;1297;22889;-57
2023/01/02 03:59:51;;;;;;;4.70;4.00;;;22.20;60.00;;;;;;217152;1299;22482;-58
2023/01/02 04:05:06;;;;;;;3.80;3.50;;;22.20;60.10;;;;;;213938;1287;24253;-57
2023/01/02 04:10:13;;;;;;;3.70;3.10;;;22.10;60.30;;;;;;213987;1292;22494;-58
2023/01/02 04:15:21;;;;;;;4.00;3.50;;;22.10;60.50;;;;;;214111;1304;22471;-58
2023/01/02 04:20:30;;;;;;;3.60;3.30;;;22.00;60.50;;;;;;214082;1291;22458;-56
2023/01/02 04:25:47;;;;;;;5.10;3.80;;;22.00;60.40;;;;;;214062;1278;22590;-56
2023/01/02 04:31:01;;;;;;;4.40;3.50;;;22.00;60.80;;;;;;214092;1297;22464;-58
2023/01/02 04:36:11;;;;;;;3.50;3.30;;;21.90;60.60;;;;;;214162;1293;22456;-58
2023/01/02 04:41:25;;;;;;;4.40;3.70;;;21.90;61.00;;;;;;214198;1301;22676;-55
2023/01/02 04:46:29;;;;;;;3.50;3.20;;;21.80;60.60;;;;;;214265;1294;22511;-59
2023/01/02 04:51:34;;;;;;;3.40;3.10;;;21.90;60.70;;;;;;214155;1301;22493;-58
2023/01/02 04:56:38;;;;;;;3.70;3.40;;;21.80;60.80;;;;;;214229;1281;22617;-57
2023/01/02 05:01:42;;;;;;;3.20;2.80;;;21.80;61.00;;;;;;214206;1304;22521;-56
2023/01/02 05:06:46;;;;;;;3.50;3.20;;;21.80;61.10;;;;;;214361;1293;22462;-59
2023/01/02 05:11:50;;;;;;;3.90;3.50;;;21.70;61.10;;;;;;214088;1296;24022;-58
2023/01/02 05:16:54;;;;;;;4.00;3.70;;;21.70;61.00;;;;;;214059;1303;25325;-58
2023/01/02 05:27:22;;;;;;;3.50;3.20;;;21.70;61.00;;;;;;214109;1290;22477;-57
2023/01/02 05:32:26;;;;;;;5.00;3.50;;;21.70;61.50;;;;;;214303;1298;25316;-58
2023/01/02 05:37:32;;;;;;;3.80;3.50;;;21.60;61.30;;;;;;214243;1291;22547;-58
2023/01/02 05:42:36;;;;;;;3.40;3.10;;;21.60;61.00;;;;;;214381;1292;22858;-59
2023/01/02 05:47:41;;;;;;;3.40;3.10;;;21.60;61.10;;;;;;214054;1278;24041;-58
2023/01/02 05:52:45;;;;;;;3.70;3.40;;;21.60;61.20;;;;;;213968;1298;22569;-58
2023/01/02 05:57:55;;;;;;;3.30;3.10;;;21.50;61.20;;;;;;214309;1300;22582;-59
2023/01/02 06:02:59;;;;;;;3.30;3.10;;;21.50;61.20;;;;;;213976;1287;22446;-57
2023/01/02 06:08:04;;;;;;;3.00;2.80;;;21.50;61.30;;;;;;214155;1290;24251;-58
2023/01/02 06:13:07;;;;;;;4.40;3.80;;;21.50;61.20;;;;;;214087;1291;22586;-58
2023/01/02 06:18:12;;;;;;;3.30;3.10;;;21.50;61.70;;;;;;214031;1297;24996;-58
2023/01/02 06:23:16;;;;;;;3.50;3.20;;;21.40;61.30;;;;;;214141;1298;22468;-59
2023/01/02 06:28:21;;;;;;;3.60;3.10;;;21.40;61.40;;;;;;214629;1288;22533;-60
2023/01/02 06:33:25;;;;;;;3.00;2.60;;;21.40;61.80;;;;;;214333;1297;22465;-58
2023/01/02 06:38:29;;;;;;;3.00;2.80;;;21.40;61.30;;;;;;214175;1287;24035;-58
2023/01/02 06:43:35;;;;;;;4.10;3.20;;;21.40;61.50;;;;;;214151;1293;24372;-57
2023/01/02 06:48:39;;;;;;;4.40;3.00;;;21.50;61.30;;;;;;213788;1290;22462;-58
2023/01/02 06:53:44;;;;;;;3.70;3.10;;;21.70;60.90;;;;;;213904;1302;24397;-59
2023/01/02 06:58:49;;;;;;;5.40;3.10;;;21.90;60.40;;;;;;213986;1298;25457;-62
2023/01/02 07:03:54;;;;;;;4.50;2.90;;;22.00;60.40;;;;;;213914;1294;22470;-58
2023/01/02 07:08:59;;;;;;;9.30;4.00;;;22.20;60.90;;;;;;213945;1301;23849;-58
2023/01/02 07:14:03;;;;;;;5.40;3.20;;;22.30;61.00;;;;;;214039;1298;22478;-58
2023/01/02 07:19:07;;;;;;;5.90;3.80;;;22.40;60.30;;;;;;214001;1282;22500;-59
2023/01/02 07:24:14;;;;;;;5.20;3.10;;;22.50;60.10;;;;;;214089;1304;22461;-58
2023/01/02 07:29:18;;;;;;;4.60;3.20;;;22.60;60.10;;;;;;213839;1296;25309;-60
2023/01/02 07:34:22;;;;;;;4.60;3.60;;;22.70;59.30;;;;;;214212;1300;23093;-57
2023/01/02 07:39:26;;;;;;;8.20;3.20;;;22.80;58.70;;;;;;214487;1291;22486;-59
2023/01/02 07:44:30;;;;;;;9.40;3.60;;;22.90;58.50;;;;;;213782;1303;22496;-56
2023/01/02 07:49:34;;;;;;;11.80;3.80;;;22.80;58.50;;;;;;213817;1289;25365;-57
2023/01/02 07:54:39;;;;;;;17.50;4.30;;;22.70;58.50;;;;;;213837;1303;22511;-58
2023/01/02 07:59:45;;;;;;;6.40;4.20;;;22.80;58.70;;;;;;214154;1291;24508;-58
2023/01/02 08:04:49;;;;;;;6.30;3.50;;;22.70;58.40;;;;;;214164;1284;22456;-55
2023/01/02 08:09:54;;;;;;;7.50;3.80;;;22.60;58.70;;;;;;214030;1305;24220;-59
2023/01/02 08:14:58;;;;;;;8.70;4.30;;;22.50;58.80;;;;;;214127;1294;22474;-59
2023/01/02 08:20:03;;;;;;;6.70;4.20;;;22.50;59.00;;;;;;214242;1291;193679;-59
2023/01/02 08:25:10;;;;;;;8.20;3.70;;;22.40;59.00;;;;;;214088;1299;22474;-59
2023/01/02 08:30:15;;;;;;;6.80;3.90;;;22.40;59.20;;;;;;213985;1301;22546;-59
2023/01/02 08:35:19;;;;;;;4.90;3.80;;;22.30;59.20;;;;;;214304;1304;24376;-59
2023/01/02 08:40:40;;;;;;;4.70;3.70;;;22.30;59.40;;;;;;213805;1289;24249;-59
2023/01/02 08:45:44;;;;;;;7.10;3.80;;;22.20;59.20;;;;;;214080;1293;22715;-58
2023/01/02 08:50:49;;;;;;;5.80;3.40;;;22.20;59.30;;;;;;214150;1305;22457;-59
2023/01/02 08:55:53;;;;;;;4.20;3.70;;;22.20;59.20;;;;;;213680;1304;24018;-56
2023/01/02 09:00:57;;;;;;;5.20;3.50;;;22.20;59.20;;;;;;214339;1290;23087;-59
2023/01/02 09:06:01;;;;;;;6.80;3.50;;;22.20;59.20;;;;;;213970;1285;22451;-59
2023/01/02 09:11:14;;;;;;;5.10;3.90;;;22.20;59.60;;;;;;213986;1291;22983;-59
2023/01/02 09:16:18;;;;;;;4.10;3.50;;;22.10;59.20;;;;;;214071;1298;25299;-58
2023/01/02 09:21:23;;;;;;;4.70;3.90;;;22.10;59.10;;;;;;213932;1304;22505;-58
2023/01/02 09:26:27;;;;;;;4.40;3.50;;;22.20;59.50;;;;;;213989;1289;22679;-59
2023/01/02 09:31:33;;;;;;;4.80;3.50;;;22.20;59.50;;;;;;214042;1289;24282;-57
2023/01/02 09:36:38;;;;;;;4.00;3.60;;;22.20;59.00;;;;;;213675;1299;22481;-58
2023/01/02 09:41:57;;;;;;;6.10;4.00;;;22.30;58.90;;;;;;213999;1294;22584;-59
2023/01/02 09:47:10;;;;;;;3.60;3.10;;;22.30;58.90;;;;;;214029;1297;24323;-61
2023/01/02 09:52:20;;;;;;;3.80;3.40;;;22.40;59.00;;;;;;213751;1304;22488;-66
2023/01/02 09:57:27;;;;;;;5.00;3.60;;;22.40;59.50;;;;;;213834;1293;22588;-57
2023/01/02 10:02:39;;;;;;;4.90;3.00;;;22.20;60.50;;;;;;213894;1303;25432;-56
2023/01/02 10:08:13;;;;;;;3.80;3.30;;;22.10;60.70;;;;;;214200;1303;25298;-57
2023/01/02 10:13:42;;;;;;;3.40;3.10;;;22.00;61.50;;;;;;214125;1306;22565;-56
2023/01/02 10:19:16;;;;;;;5.20;3.60;;;22.00;61.90;;;;;;214364;1303;22716;-58
2023/01/02 10:24:33;;;;;;;3.70;3.30;;;22.00;62.20;;;;;;213894;1290;24250;-56
2023/01/02 10:29:47;;;;;;;3.70;3.00;;;22.10;62.50;;;;;;214072;1281;22678;-56
2023/01/02 10:35:06;;;;;;;3.30;3.00;;;22.00;62.70;;;;;;214024;1304;26626;-57
2023/01/02 10:40:12;;;;;;;3.50;3.20;;;22.00;62.90;;;;;;214080;1284;24251;-57
2023/01/02 10:45:16;;;;;;;5.00;3.30;;;22.00;63.30;;;;;;214100;1297;25316;-56
2023/01/02 10:50:26;;;;;;;4.10;3.50;;;22.00;63.40;;;;;;214256;1289;22470;-58
2023/01/02 10:55:32;;;;;;;3.70;3.40;;;22.00;63.70;;;;;;214151;1288;23180;-58
2023/01/02 11:00:37;;;;;;;3.50;3.20;;;21.90;63.70;;;;;;214107;1281;24316;-57
2023/01/02 11:05:47;;;;;;;4.00;3.20;;;21.90;64.10;;;;;;213926;1299;25235;-58
2023/01/02 11:10:51;;;;;;;3.40;3.10;;;21.80;64.50;;;;;;213827;1288;24480;-58
2023/01/02 11:15:59;;;;;;;3.50;3.20;;;21.80;64.60;;;;;;213902;1301;22524;-56
2023/01/02 11:21:06;;;;;;;3.50;3.20;;;21.80;64.90;;;;;;214192;1284;24449;-58
2023/01/02 11:26:20;;;;;;;3.30;3.00;;;21.80;64.90;;;;;;214042;1290;22507;-57
2023/01/02 11:31:25;;;;;;;3.20;2.90;;;21.70;65.20;;;;;;214131;1286;22476;-58
2023/01/02 11:36:30;;;;;;;3.50;3.10;;;21.70;65.20;;;;;;213995;1291;24334;-58
2023/01/02 11:47:12;;;;;;;3.50;3.20;;;21.70;65.70;;;;;;214015;1297;22486;-58
2023/01/02 11:52:31;;;;;;;3.60;2.80;;;21.60;66.10;;;;;;213834;1291;23239;-57
2023/01/02 11:57:52;;;;;;;3.40;3.10;;;21.60;66.60;;;;;;214081;1298;25330;-57
2023/01/02 12:03:03;;;;;;;3.30;3.00;;;21.60;66.10;;;;;;213985;1300;22613;-58
2023/01/02 12:08:17;;;;;;;;;;;21.60;66.30;;;;;;214025;1289;25235;-60
2023/01/02 12:13:55;;;;;;;4.00;3.10;;;21.50;66.60;;;;;;214165;1303;25095;-57
2023/01/02 12:19:29;;;;;;;4.60;3.00;;;21.60;66.70;;;;;;213687;1304;22472;-56
2023/01/02 12:24:43;;;;;;;3.30;2.90;;;21.50;66.60;;;;;;214287;1278;22483;-57
2023/01/02 12:30:00;;;;;;;3.20;2.90;;;21.50;66.90;;;;;;214033;1304;22469;-59
2023/01/02 12:35:20;;;;;;;5.50;3.40;;;21.50;66.70;;;;;;214180;1288;24286;-59
2023/01/02 12:40:31;;;;;;;3.20;2.90;;;21.50;67.40;;;;;;214050;1298;25977;-58
2023/01/02 12:45:50;;;;;;;4.60;3.50;;;21.50;67.30;;;;;;213789;1289;22490;-57
2023/01/02 12:51:25;;;;;;;4.10;3.00;;;21.50;67.40;;;;;;213919;1287;24298;-59
2023/01/02 12:56:43;;;;;;;3.30;2.90;;;21.50;67.70;;;;;;213904;1288;25550;-59
2023/01/02 13:02:04;;;;;;;3.30;3.00;;;21.50;67.50;;;;;;214030;1285;22504;-59
2023/01/02 13:07:30;;;;;;;4.00;2.90;;;21.50;67.80;;;;;;214144;1298;26674;-59
2023/01/02 13:12:35;;;;;;;3.40;3.10;;;21.50;67.70;;;;;;214215;1298;24260;-60
2023/01/02 13:17:50;;;;;;;3.50;3.20;;;21.40;67.50;;;;;;213804;1294;22478;-58
2023/01/02 13:23:15;;;;;;;3.30;3.00;;;21.40;67.80;;;;;;213992;1300;25339;-57
2023/01/02 13:28:21;;;;;;;3.20;2.90;;;21.40;67.70;;;;;;214337;1300;22466;-57
2023/01/02 13:33:33;;;;;;;3.00;2.70;;;21.40;67.40;;;;;;213847;1299;22470;-56
2023/01/02 13:38:38;;;;;;;3.10;2.80;;;21.40;68.00;;;;;;214122;1299;24179;-57
2023/01/02 13:43:50;;;;;;;3.00;2.80;;;21.40;67.70;;;;;;213991;1291;22484;-57
2023/01/02 13:48:59;;;;;;;;;;;21.40;68.10;;;;;;214049;1302;24138;-58
2023/01/02 13:54:16;;;;;;;3.20;2.90;;;21.40;67.80;;;;;;213879;1289;22518;-58
2023/01/02 13:59:21;;;;;;;3.10;2.70;;;21.40;67.60;;;;;;213846;1299;25456;-59
2023/01/02 14:04:45;;;;;;;4.00;2.80;;;21.40;67.70;;;;;;214017;1303;22460;-57
2023/01/02 14:10:14;;;;;;;3.20;2.90;;;21.40;67.90;;;;;;213991;1303;22475;-58
2023/01/02 14:15:24;;;;;;;3.50;3.00;;;21.40;67.80;;;;;;214203;1304;22462;-58
2023/01/02 14:20:32;;;;;;;3.20;3.00;;;21.40;67.60;;;;;;214223;1287;22515;-60
2023/01/02 14:25:46;;;;;;;2.90;2.50;;;21.30;68.10;;;;;;214139;1286;25257;-59
2023/01/02 14:30:51;;;;;;;3.80;3.50;;;21.30;67.70;;;;;;214234;1302;22473;-59
2023/01/02 14:36:01;;;;;;;3.00;2.70;;;21.30;68.10;;;;;;214138;1284;24271;-60
2023/01/02 14:46:35;;;;;;;3.20;3.00;;;21.30;67.70;;;;;;214148;1283;23678;-60
2023/01/02 14:51:44;;;;;;;3.60;3.30;;;21.30;67.60;;;;;;214354;1294;22467;-60
2023/01/02 14:56:55;;;;;;;3.20;2.90;;;21.20;67.40;;;;;;214317;1297;22588;-60
2023/01/02 15:02:06;;;;;;;3.50;3.20;;;21.20;67.50;;;;;;213990;1282;22466;-61
2023/01/02 15:07:25;;;;;;;3.30;3.00;;;21.20;67.70;;;;;;213964;1292;26982;-59
2023/01/02 15:18:01;;;;;;;3.30;2.90;;;21.20;67.40;;;;;;213899;1288;22477;-58
2023/01/02 15:23:05;;;;;;;4.20;3.30;;;21.20;67.20;;;;;;214009;1287;23084;-60
2023/01/02 15:28:23;;;;;;;4.70;3.50;;;21.20;67.40;;;;;;214022;1304;24232;-60
2023/01/02 15:33:32;;;;;;;3.80;3.50;;;21.20;67.70;;;;;;213783;1296;22475;-60
2023/01/02 15:38:37;;;;;;;3.70;3.40;;;21.20;67.10;;;;;;213771;1288;25642;-60
2023/01/02 15:49:07;;;;;;;7.20;3.80;;;21.20;67.30;;;;;;214195;1294;22474;-61
2023/01/02 15:54:14;;;;;;;4.40;4.00;;;21.20;67.10;;;;;;213729;1290;22710;-56
2023/01/02 15:59:28;;;;;;;5.60;4.00;;;21.20;67.60;;;;;;213805;1287;24256;-56
2023/01/02 16:04:33;;;;;;;6.10;4.50;;;21.20;69.00;;;;;;213760;1284;26716;-58
2023/01/02 16:09:39;;;;;;;5.10;4.60;;;21.20;67.90;;;;;;214020;1287;22635;-58
2023/01/02 16:14:46;;;;;;;5.10;4.50;;;21.30;66.40;;;;;;213878;1294;24340;-57
2023/01/02 16:19:59;;;;;;;5.70;5.00;;;21.50;65.90;;;;;;214408;1297;25214;-59
2023/01/02 16:25:18;;;;;;;5.30;4.80;;;21.70;65.40;;;;;;214108;1285;22473;-57
2023/01/02 16:30:29;;;;;;;9.50;5.50;;;21.80;65.00;;;;;;214162;1296;22452;-56
2023/01/02 16:35:36;;;;;;;5.40;4.90;;;21.80;64.50;;;;;;214229;1277;22634;-57
2023/01/02 16:40:43;;;;;;;6.20;5.60;;;21.90;64.60;;;;;;214289;1294;24479;-56
2023/01/02 16:46:11;;;;;;;9.70;5.60;;;22.00;63.60;;;;;;213922;1291;24259;-56
2023/01/02 16:51:15;;;;;;;7.40;5.60;;;22.10;63.00;;;;;;213654;1300;22501;-57
2023/01/02 16:56:20;;;;;;;8.60;5.70;;;22.20;62.40;;;;;;214166;1288;25246;-57
2023/01/02 17:01:24;;;;;;;7.70;6.60;;;22.30;62.10;;;;;;214049;1284;24281;-57
2023/01/02 17:06:29;;;;;;;6.90;6.20;;;22.30;61.40;;;;;;213719;1284;23456;-57
2023/01/02 17:11:33;;;;;;;6.80;6.10;;;22.40;61.10;;;;;;213994;1294;22472;-56
2023/01/02 17:16:37;;;;;;;7.50;6.70;;;22.40;60.40;;;;;;214002;1283;22535;-58
2023/01/02 17:21:41;;;;;;;7.50;6.70;;;22.60;60.20;;;;;;213993;1296;22457;-59
2023/01/02 17:26:46;;;;;;;9.60;6.00;;;22.70;59.90;;;;;;213965;1284;22463;-57
2023/01/02 17:31:50;;;;;;;9.60;5.90;;;22.70;59.60;;;;;;214041;1295;24254;-57
2023/01/02 17:36:55;;;;;;;7.30;5.80;;;22.80;60.10;;;;;;213988;1285;22474;-58
2023/01/02 17:42:00;;;;;;;6.80;6.10;;;22.80;60.20;;;;;;213874;1288;25657;-57
2023/01/02 17:47:04;;;;;;;8.20;6.30;;;22.80;60.50;;;;;;213930;1287;23509;-57
2023/01/02 17:52:28;;;;;;;7.60;5.80;;;22.80;60.60;;;;;;213799;1298;22503;-57
2023/01/02 17:57:37;;;;;;;6.40;5.80;;;22.70;60.60;;;;;;214033;1297;24318;-58
2023/01/02 18:02:41;;;;;;;6.20;5.60;;;22.70;60.40;;;;;;213975;1291;24516;-58
2023/01/02 18:07:46;;;;;;;6.30;5.70;;;22.60;60.60;;;;;;213964;1298;22583;-59
2023/01/02 18:12:50;;;;;;;7.10;6.40;;;22.60;61.20;;;;;;213963;1278;22464;-56
2023/01/02 18:17:55;;;;;;;12.40;6.20;;;22.50;61.20;;;;;;214230;1298;22596;-55
2023/01/02 18:22:59;;;;;;;6.50;5.90;;;22.50;62.10;;;;;;218640;1291;24203;-54
2023/01/02 18:28:20;;;;;;;7.00;6.40;;;22.40;61.30;;;;;;214417;1286;22462;-58
2023/01/02 18:33:26;;;;;;;6.80;6.10;;;22.40;61.20;;;;;;214054;1297;25339;-58
2023/01/02 18:38:35;;;;;;;6.20;5.50;;;22.30;60.90;;;;;;214191;1294;22596;-59
2023/01/02 18:43:40;;;;;;;6.80;6.10;;;22.30;61.50;;;;;;214106;1300;25208;-57
2023/01/02 18:48:48;;;;;;;8.30;6.60;;;22.30;61.20;;;;;;213937;1284;24257;-57
2023/01/02 18:53:55;;;;;;;7.40;6.60;;;22.20;60.70;;;;;;214087;1294;24043;-58
2023/01/02 18:59:14;;;;;;;8.20;6.60;;;22.20;60.90;;;;;;213894;1281;24341;-61
2023/01/02 19:04:25;;;;;;;7.60;6.80;;;22.20;60.50;;;;;;213970;1290;25307;-59
2023/01/02 19:09:33;;;;;;;15.00;8.10;;;22.40;60.60;;;;;;214075;1306;22459;-60
2023/01/02 19:14:40;;;;;;;11.60;7.70;;;22.30;60.90;;;;;;213708;1305;25324;-58
2023/01/02 19:19:45;;;;;;;8.80;6.80;;;22.30;61.00;;;;;;214022;1298;23881;-59
2023/01/02 19:24:49;;;;;;;8.10;7.00;;;22.40;61.50;;;;;;214099;1290;22519;-57
2023/01/02 19:29:56;;;;;;;9.10;6.80;;;22.20;60.80;;;;;;214139;1285;22476;-58
2023/01/02 19:35:23;;;;;;;9.40;6.60;;;22.20;61.40;;;;;;213958;1287;22476;-58
2023/01/02 19:40:28;;;;;;;10.60;6.50;;;22.10;61.10;;;;;;214102;1292;22497;-58
2023/01/02 19:45:34;;;;;;;11.20;6.30;;;22.10;61.40;;;;;;214000;1286;24251;-58
2023/01/02 19:50:38;;;;;;;7.00;6.30;;;22.10;61.00;;;;;;213901;1285;24314;-58
2023/01/02 19:55:42;;;;;;;7.60;6.80;;;22.00;60.70;;;;;;214054;1288;22468;-57
2023/01/02 20:00:47;;;;;;;7.70;7.00;;;22.00;60.60;;;;;;214103;1278;22806;-57
2023/01/02 20:05:55;;;;;;;6.80;6.10;;;22.00;60.80;;;;;;214303;1285;22471;-56
2023/01/02 20:11:02;;;;;;;6.40;5.60;;;22.00;60.60;;;;;;214013;1297;23692;-56
2023/01/02 20:16:09;;;;;;;6.70;6.10;;;21.90;60.60;;;;;;214031;1306;22482;-57
2023/01/02 20:21:13;;;;;;;6.60;5.90;;;21.90;60.40;;;;;;213831;1302;209030;-56
2023/01/02 20:26:19;;;;;;;6.40;5.70;;;21.90;60.80;;;;;;213876;1288;24094;-57
2023/01/02 20:31:23;;;;;;;6.90;5.40;;;21.80;60.60;;;;;;213874;1284;24295;-57
2023/01/02 20:36:29;;;;;;;9.30;6.40;;;21.90;61.50;;;;;;214040;1298;22579;-58
2023/01/02 20:41:40;;;;;;;19.50;5.60;;;21.90;61.90;;;;;;213809;1300;23852;-59
2023/01/02 20:46:44;;;;;;;8.80;6.10;;;21.90;62.00;;;;;;214030;1298;24444;-57
2023/01/02 20:51:54;;;;;;;9.40;5.70;;;21.80;61.90;;;;;;214172;1283;22581;-59
2023/01/02 20:57:01;;;;;;;7.60;6.20;;;21.80;62.10;;;;;;213675;1280;24301;-57
2023/01/02 21:02:06;;;;;;;13.80;6.00;;;21.80;62.30;;;;;;213696;1297;22461;-57
2023/01/02 21:07:12;;;;;;;7.80;4.90;;;21.80;62.40;;;;;;214025;1288;25401;-59
2023/01/02 21:17:40;;;;;;;6.30;5.10;;;21.70;62.30;;;;;;213899;1289;22682;-59
2023/01/02 21:22:49;;;;;;;12.60;5.50;;;21.70;62.30;;;;;;214085;1300;22715;-58
2023/01/02 21:27:53;;;;;;;6.40;5.20;;;21.70;62.20;;;;;;214222;1298;22487;-59
2023/01/02 21:32:58;;;;;;;7.30;5.80;;;21.70;62.80;;;;;;214227;1297;22654;-58
2023/01/02 21:38:03;;;;;;;9.00;5.70;;;21.70;62.30;;;;;;213921;1285;25258;-59
2023/01/02 21:43:08;;;;;;;7.30;5.00;;;21.60;62.40;;;;;;213831;1284;22521;-58
2023/01/02 21:48:12;;;;;;;8.50;5.20;;;21.60;63.00;;;;;;213898;1298;22460;-57
2023/01/02 21:53:16;;;;;;;11.00;5.60;;;21.60;62.60;;;;;;216139;1270;22493;-59
2023/01/02 21:58:20;;;;;;;10.60;5.00;;;21.60;63.00;;;;;;214110;1285;22475;-58
2023/01/02 22:03:25;;;;;;;18.00;6.20;;;21.60;64.80;;;;;;214128;1290;22613;-58
2023/01/02 22:08:29;;;;;;;14.10;6.00;;;21.60;68.40;;;;;;214124;1286;22595;-55
2023/01/02 22:13:33;;;;;;;10.00;5.40;;;21.60;68.00;;;;;;214154;1288;24196;-56
2023/01/02 22:18:38;;;;;;;7.80;5.30;;;21.60;67.90;;;;;;214463;1300;22475;-57
2023/01/02 22:23:42;;;;;;;8.10;5.20;;;21.60;67.50;;;;;;214181;1291;22724;-55
2023/01/02 22:28:47;;;;;;;10.10;5.30;;;21.60;67.30;;;;;;214000;1300;22474;-56
2023/01/02 22:33:54;;;;;;;9.60;5.50;;;21.60;67.30;;;;;;213948;1287;22459;-57
2023/01/02 22:39:01;;;;;;;12.30;5.90;;;21.60;67.20;;;;;;214419;1284;25191;-56
2023/01/02 22:44:26;;;;;;;11.30;6.30;;;21.50;67.40;;;;;;213967;1287;22852;-58
2023/01/02 22:49:34;;;;;;;12.50;6.20;;;21.60;67.30;;;;;;214329;1287;23200;-57
2023/01/02 22:54:38;;;;;;;13.40;6.30;;;21.60;67.30;;;;;;214096;1301;23913;-55
2023/01/02 22:59:43;;;;;;;9.30;6.20;;;21.50;67.30;;;;;;214235;1305;25919;-57
2023/01/02 23:04:47;;;;;;;10.50;6.10;;;21.60;67.40;;;;;;213849;1291;25710;-57
2023/01/02 23:09:52;;;;;;;10.70;5.30;;;21.50;67.20;;;;;;213966;1297;26061;-58
2023/01/02 23:14:57;;;;;;;13.60;5.90;;;21.50;67.20;;;;;;214177;1299;25459;-56
2023/01/02 23:20:01;;;;;;;10.40;5.70;;;21.50;67.20;;;;;;214004;1306;22474;-57
2023/01/02 23:25:07;;;;;;;14.50;7.60;;;21.50;67.10;;;;;;214316;1299;25265;-55
2023/01/02 23:30:11;;;;;;;15.40;7.60;;;21.50;67.50;;;;;;214198;1287;23881;-56
2023/01/02 23:35:16;;;;;;;16.90;8.10;;;21.60;69.30;;;;;;214022;1300;22615;-56
2023/01/02 23:40:20;;;;;;;13.30;7.80;;;21.60;69.40;;;;;;213856;1294;24423;-56
2023/01/02 23:45:26;;;;;;;16.80;7.60;;;21.60;69.00;;;;;;214023;1298;25315;-55
2023/01/02 23:50:30;;;;;;;15.50;7.40;;;21.60;68.80;;;;;;213986;1285;22525;-55
2023/01/02 23:55:38;;;;;;;17.50;7.10;;;21.50;69.20;;;;;;213847;1290;22596;-56
